createdAt,value
2019-05-13T00:02:04.540Z,11.30
2019-05-13T00:04:34.199Z,11.20
2019-05-13T00:07:04.742Z,11.20
2019-05-13T00:09:34.432Z,11.00
2019-05-13T00:12:04.669Z,11.20
2019-05-13T00:14:34.641Z,10.90
2019-05-13T00:17:04.511Z,11.00
2019-05-13T00:19:34.189Z,11.00
2019-05-13T00:22:03.989Z,11.10
2019-05-13T00:24:34.010Z,11.00
2019-05-13T00:27:04.047Z,11.00
2019-05-13T00:29:34.052Z,11.00
2019-05-13T00:32:04.762Z,10.90
2019-05-13T00:34:34.419Z,10.90
2019-05-13T00:37:11.083Z,10.80
2019-05-13T00:39:35.120Z,10.80
2019-05-13T00:42:04.641Z,10.80
2019-05-13T00:44:34.077Z,10.80
2019-05-13T00:47:04.528Z,10.80
2019-05-13T00:49:34.617Z,10.80
2019-05-13T00:52:04.805Z,10.80
2019-05-13T00:54:34.386Z,10.70
2019-05-13T00:57:04.530Z,10.80
2019-05-13T00:59:34.210Z,10.70
2019-05-13T01:02:04.450Z,10.70
2019-05-13T01:04:34.098Z,10.60
2019-05-13T01:07:04.470Z,10.60
2019-05-13T01:09:34.453Z,10.60
2019-05-13T01:12:04.539Z,10.60
2019-05-13T01:14:34.372Z,10.60
2019-05-13T01:17:04.219Z,10.70
2019-05-13T01:19:34.132Z,10.60
2019-05-13T01:22:04.159Z,10.60
2019-05-13T01:24:33.916Z,10.60
2019-05-13T01:27:04.197Z,10.50
2019-05-13T01:29:34.380Z,10.50
2019-05-13T01:32:04.653Z,10.30
2019-05-13T01:34:34.357Z,10.40
2019-05-13T01:37:04.368Z,10.30
2019-05-13T01:39:34.940Z,10.40
2019-05-13T01:42:05.260Z,10.30
2019-05-13T01:44:34.599Z,10.20
2019-05-13T01:47:04.537Z,10.30
2019-05-13T01:49:34.278Z,10.20
2019-05-13T01:52:04.111Z,10.10
2019-05-13T01:54:34.077Z,10.10
2019-05-13T01:57:04.337Z,10.10
2019-05-13T01:59:34.781Z,10.10
2019-05-13T02:02:05.207Z,10.10
2019-05-13T02:04:34.620Z,10.10
2019-05-13T02:07:04.351Z,10.10
2019-05-13T02:09:34.748Z,10.00
2019-05-13T02:12:04.990Z,10.10
2019-05-13T02:14:34.687Z,10.00
2019-05-13T02:17:04.483Z,9.90
2019-05-13T02:19:33.942Z,10.00
2019-05-13T02:22:04.182Z,9.90
2019-05-13T02:24:34.358Z,9.80
2019-05-13T02:27:04.234Z,9.90
2019-05-13T02:29:34.440Z,9.90
2019-05-13T02:32:04.174Z,9.80
2019-05-13T02:34:33.514Z,9.90
2019-05-13T02:37:03.485Z,10.00
2019-05-13T02:39:33.213Z,9.80
2019-05-13T02:42:03.856Z,9.80
2019-05-13T02:44:33.663Z,9.80
2019-05-13T02:47:03.733Z,9.80
2019-05-13T02:49:33.463Z,9.60
2019-05-13T02:52:03.347Z,9.50
2019-05-13T02:54:34.112Z,9.50
2019-05-13T02:57:04.318Z,9.50
2019-05-13T02:59:34.051Z,9.50
2019-05-13T03:02:04.050Z,9.60
2019-05-13T03:04:33.636Z,9.60
2019-05-13T03:07:03.338Z,9.50
2019-05-13T03:09:33.655Z,9.20
2019-05-13T03:12:04.275Z,9.50
2019-05-13T03:14:33.828Z,9.50
2019-05-13T03:17:04.878Z,9.30
2019-05-13T03:19:34.224Z,9.20
2019-05-13T03:22:03.582Z,9.50
2019-05-13T03:24:33.337Z,9.50
2019-05-13T03:27:03.011Z,9.50
2019-05-13T03:29:33.183Z,9.40
2019-05-13T03:32:06.520Z,9.40
2019-05-13T03:34:35.809Z,9.60
2019-05-13T03:37:06.578Z,9.60
2019-05-13T03:39:35.844Z,9.70
2019-05-13T03:42:05.210Z,9.60
2019-05-13T03:44:36.176Z,9.70
2019-05-13T03:47:06.809Z,9.70
2019-05-13T03:49:36.234Z,9.80
2019-05-13T03:52:05.735Z,9.70
2019-05-13T03:54:35.575Z,9.70
2019-05-13T03:57:05.475Z,9.60
2019-05-13T03:59:34.896Z,9.70
2019-05-13T04:02:05.078Z,9.70
2019-05-13T04:04:34.501Z,9.80
2019-05-13T04:07:03.964Z,9.70
2019-05-13T04:09:36.488Z,9.50
2019-05-13T04:12:04.630Z,9.60
2019-05-13T04:14:34.073Z,9.50
2019-05-13T04:17:03.959Z,9.50
2019-05-13T04:19:34.124Z,9.60
2019-05-13T04:22:03.963Z,9.60
2019-05-13T04:24:33.792Z,9.60
2019-05-13T04:27:03.726Z,9.40
2019-05-13T04:29:33.684Z,9.60
2019-05-13T04:32:03.221Z,9.80
2019-05-13T04:34:33.630Z,9.90
2019-05-13T04:37:03.789Z,9.80
2019-05-13T04:39:45.244Z,9.90
2019-05-13T04:42:04.423Z,9.80
2019-05-13T04:44:33.823Z,9.20
2019-05-13T04:47:03.963Z,9.80
2019-05-13T04:49:33.765Z,9.90
2019-05-13T04:52:03.993Z,9.80
2019-05-13T04:54:33.996Z,9.60
2019-05-13T04:57:03.648Z,9.70
2019-05-13T04:59:34.772Z,9.50
2019-05-13T05:02:39.941Z,9.50
2019-05-13T05:05:05.245Z,9.50
2019-05-13T05:07:52.340Z,9.60
2019-05-13T05:10:38.350Z,9.70
2019-05-13T05:13:35.703Z,9.80
2019-05-13T05:16:34.592Z,9.80
2019-05-13T05:19:35.753Z,9.80
2019-05-13T05:22:13.959Z,9.90
2019-05-13T05:24:46.388Z,10.00
2019-05-13T05:27:27.679Z,10.10
2019-05-13T05:30:11.191Z,10.30
2019-05-13T05:32:51.640Z,10.10
2019-05-13T05:35:42.838Z,10.20
2019-05-13T05:38:25.261Z,10.40
2019-05-13T05:40:54.147Z,10.50
2019-05-13T05:43:24.756Z,10.60
2019-05-13T05:45:54.459Z,10.60
2019-05-13T05:48:25.437Z,10.70
2019-05-13T05:50:57.824Z,10.80
2019-05-13T05:53:31.920Z,10.90
2019-05-13T05:56:03.369Z,10.90
2019-05-13T05:58:34.568Z,11.00
2019-05-13T06:01:04.215Z,11.00
2019-05-13T06:03:35.676Z,11.10
2019-05-13T06:06:05.481Z,11.20
2019-05-13T06:08:34.814Z,11.30
2019-05-13T06:11:04.424Z,11.50
2019-05-13T06:13:33.904Z,11.60
2019-05-13T06:16:03.379Z,12.10
2019-05-13T06:18:32.884Z,12.30
2019-05-13T06:21:02.291Z,12.40
2019-05-13T06:23:31.783Z,12.70
2019-05-13T06:26:02.055Z,12.70
2019-05-13T06:28:32.267Z,12.80
2019-05-13T06:31:02.617Z,12.80
2019-05-13T06:33:32.991Z,13.00
2019-05-13T06:36:02.481Z,13.10
2019-05-13T06:38:32.362Z,13.20
2019-05-13T06:41:06.756Z,13.30
2019-05-13T06:43:32.773Z,13.30
2019-05-13T06:46:02.129Z,13.30
2019-05-13T06:48:32.351Z,13.40
2019-05-13T06:51:02.552Z,13.40
2019-05-13T06:53:32.351Z,13.50
2019-05-13T06:56:01.723Z,13.70
2019-05-13T06:58:32.524Z,13.70
2019-05-13T07:01:03.611Z,13.90
2019-05-13T07:03:33.283Z,14.20
2019-05-13T07:06:02.704Z,14.50
2019-05-13T07:08:32.071Z,14.60
2019-05-13T07:11:17.281Z,14.50
2019-05-13T07:13:32.649Z,14.80
2019-05-13T07:16:01.995Z,14.60
2019-05-13T07:18:32.363Z,14.70
2019-05-13T07:21:02.379Z,14.60
2019-05-13T07:23:32.091Z,14.80
2019-05-13T07:26:01.979Z,14.90
2019-05-13T07:28:32.415Z,14.90
2019-05-13T07:31:02.267Z,14.90
2019-05-13T07:33:32.265Z,15.00
2019-05-13T07:36:03.340Z,14.90
2019-05-13T07:38:33.233Z,15.10
2019-05-13T07:41:04.893Z,15.40
2019-05-13T07:43:34.326Z,15.40
2019-05-13T07:46:03.816Z,15.60
2019-05-13T07:48:33.221Z,15.60
2019-05-13T07:51:04.693Z,15.80
2019-05-13T07:53:33.659Z,15.80
2019-05-13T07:56:03.067Z,16.10
2019-05-13T07:58:37.066Z,16.10
2019-05-13T08:01:03.686Z,16.10
2019-05-13T08:03:33.055Z,16.30
2019-05-13T08:06:02.478Z,16.20
2019-05-13T08:08:32.459Z,16.40
2019-05-13T08:11:02.071Z,16.30
2019-05-13T08:13:31.631Z,16.50
2019-05-13T08:16:01.987Z,16.50
2019-05-13T08:18:32.051Z,16.70
2019-05-13T08:21:02.221Z,16.80
2019-05-13T08:23:32.494Z,16.90
2019-05-13T08:26:02.555Z,16.90
2019-05-13T08:28:32.557Z,16.90
2019-05-13T08:31:02.390Z,17.00
2019-05-13T08:33:32.184Z,17.10
2019-05-13T08:36:01.951Z,17.20
2019-05-13T08:38:32.119Z,17.40
2019-05-13T08:41:02.040Z,17.40
2019-05-13T08:43:31.968Z,17.40
2019-05-13T08:46:02.204Z,17.40
2019-05-13T08:48:32.345Z,17.30
2019-05-13T08:51:03.206Z,17.50
2019-05-13T08:53:33.024Z,17.70
2019-05-13T08:56:02.378Z,17.80
2019-05-13T08:58:32.213Z,17.80
2019-05-13T09:01:02.352Z,17.70
2019-05-13T09:03:32.741Z,17.90
2019-05-13T09:06:03.207Z,18.00
2019-05-13T09:08:32.721Z,18.10
2019-05-13T09:11:02.300Z,18.20
2019-05-13T09:13:33.023Z,18.20
2019-05-13T09:16:02.760Z,18.20
2019-05-13T09:18:32.466Z,18.20
2019-05-13T09:21:02.790Z,18.40
2019-05-13T09:23:32.456Z,18.30
2019-05-13T09:26:02.588Z,18.20
2019-05-13T09:28:32.540Z,18.20
2019-05-13T09:31:02.365Z,18.30
2019-05-13T09:33:32.727Z,18.40
2019-05-13T09:36:02.528Z,18.50
2019-05-13T09:38:32.689Z,18.30
2019-05-13T09:41:02.361Z,18.30
2019-05-13T09:43:31.769Z,18.50
2019-05-13T09:46:02.003Z,18.60
2019-05-13T09:48:32.053Z,18.60
2019-05-13T09:51:02.426Z,18.60
2019-05-13T09:53:32.660Z,18.60
2019-05-13T09:56:02.565Z,18.70
2019-05-13T09:58:33.210Z,18.80
2019-05-13T10:01:03.499Z,18.80
2019-05-13T10:03:33.322Z,19.00
2019-05-13T10:06:03.624Z,19.10
2019-05-13T10:08:33.066Z,19.20
2019-05-13T10:11:02.482Z,19.30
2019-05-13T10:13:32.163Z,19.40
2019-05-13T10:16:01.688Z,19.40
2019-05-13T10:18:32.657Z,19.60
2019-05-13T10:21:03.739Z,19.70
2019-05-13T10:23:33.532Z,19.70
2019-05-13T10:26:06.252Z,19.60
2019-05-13T10:28:36.296Z,19.70
2019-05-13T10:31:06.488Z,19.50
2019-05-13T10:33:36.022Z,19.50
2019-05-13T10:36:05.552Z,19.60
2019-05-13T10:38:34.964Z,19.60
2019-05-13T10:41:04.475Z,19.60
2019-05-13T10:43:40.018Z,19.60
2019-05-13T10:46:05.032Z,19.70
2019-05-13T10:48:34.454Z,19.90
2019-05-13T10:51:05.112Z,20.30
2019-05-13T10:53:34.460Z,20.30
2019-05-13T10:56:04.000Z,20.30
2019-05-13T10:58:33.461Z,20.30
2019-05-13T11:01:03.393Z,20.60
2019-05-13T11:03:33.157Z,20.30
2019-05-13T11:06:03.151Z,20.40
2019-05-13T11:08:33.362Z,20.30
2019-05-13T11:11:03.126Z,20.40
2019-05-13T11:13:50.645Z,20.40
2019-05-13T11:16:04.114Z,20.40
2019-05-13T11:18:33.516Z,20.50
2019-05-13T11:21:02.892Z,20.50
2019-05-13T11:23:32.555Z,20.90
2019-05-13T11:26:03.059Z,20.70
2019-05-13T11:28:33.290Z,21.00
2019-05-13T11:33:33.847Z,21.10
2019-05-13T11:36:03.698Z,21.20
2019-05-13T11:38:33.422Z,21.00
2019-05-13T11:41:03.360Z,21.10
2019-05-13T11:43:33.466Z,21.10
2019-05-13T11:46:03.592Z,21.00
2019-05-13T11:48:32.946Z,21.00
2019-05-13T11:51:04.069Z,20.90
2019-05-13T11:53:36.573Z,20.80
2019-05-13T11:56:04.611Z,20.80
2019-05-13T11:58:33.981Z,20.80
2019-05-13T12:01:03.855Z,20.90
2019-05-13T12:03:33.291Z,20.90
2019-05-13T12:06:02.920Z,21.10
2019-05-13T12:11:05.564Z,21.20
2019-05-13T12:13:35.128Z,21.00
2019-05-13T12:16:04.690Z,21.00
2019-05-13T12:18:34.083Z,21.10
2019-05-13T12:21:04.314Z,21.20
2019-05-13T12:23:33.850Z,20.90
2019-05-13T12:26:03.989Z,21.20
2019-05-13T12:28:34.074Z,21.10
2019-05-13T12:31:03.614Z,20.90
2019-05-13T12:33:33.171Z,20.90
2019-05-13T12:36:02.524Z,21.00
2019-05-13T12:38:33.100Z,21.10
2019-05-13T12:41:05.091Z,20.90
2019-05-13T12:43:34.162Z,20.80
2019-05-13T12:46:04.060Z,20.80
2019-05-13T12:48:33.427Z,21.10
2019-05-13T12:51:03.309Z,21.20
2019-05-13T12:53:32.825Z,21.30
2019-05-13T12:56:03.526Z,21.20
2019-05-13T12:58:34.110Z,21.30
2019-05-13T13:01:03.802Z,21.20
2019-05-13T13:03:33.198Z,20.70
2019-05-13T13:06:25.666Z,20.70
2019-05-13T13:08:43.848Z,20.70
2019-05-13T13:11:05.036Z,20.80
2019-05-13T13:16:05.949Z,20.90
2019-05-13T13:18:35.918Z,20.80
2019-05-13T13:21:07.543Z,20.80
2019-05-13T13:23:36.495Z,20.90
2019-05-13T13:26:13.931Z,21.00
2019-05-13T13:28:37.141Z,20.90
2019-05-13T13:31:06.475Z,20.80
2019-05-13T13:33:35.861Z,20.80
2019-05-13T13:36:06.246Z,20.60
2019-05-13T13:38:36.239Z,20.50
2019-05-13T13:41:05.592Z,20.40
2019-05-13T13:43:37.106Z,20.50
2019-05-13T13:46:23.203Z,20.50
2019-05-13T13:48:37.069Z,20.40
2019-05-13T13:51:06.399Z,20.30
2019-05-13T13:53:35.771Z,20.30
2019-05-13T13:56:05.109Z,20.30
2019-05-13T13:58:34.493Z,20.40
2019-05-13T14:01:11.706Z,20.70
2019-05-13T14:03:35.045Z,20.90
2019-05-13T14:06:06.562Z,20.70
2019-05-13T14:06:28.718Z,21.10
2019-05-13T14:06:50.057Z,20.90
2019-05-13T14:07:03.258Z,21.30
2019-05-13T14:08:36.003Z,20.70
2019-05-13T14:11:05.369Z,20.90
2019-05-13T14:13:34.721Z,21.00
2019-05-13T14:16:04.214Z,20.90
2019-05-13T14:18:33.648Z,20.80
2019-05-13T14:21:03.543Z,20.80
2019-05-13T14:23:33.011Z,20.80
2019-05-13T14:26:02.382Z,20.90
2019-05-13T14:28:32.770Z,20.50
2019-05-13T14:31:02.433Z,20.90
2019-05-13T14:33:35.169Z,20.80
2019-05-13T14:36:03.035Z,20.50
2019-05-13T14:38:32.914Z,20.30
2019-05-13T14:41:03.504Z,20.10
2019-05-13T14:43:33.207Z,20.10
2019-05-13T14:46:02.774Z,20.30
2019-05-13T14:48:33.141Z,20.10
2019-05-13T14:51:03.744Z,20.30
2019-05-13T14:53:33.127Z,20.40
2019-05-13T14:56:03.436Z,20.10
2019-05-13T14:58:33.101Z,19.80
2019-05-13T15:01:15.895Z,19.70
2019-05-13T15:03:33.689Z,19.90
2019-05-13T15:06:03.314Z,20.10
2019-05-13T15:08:33.160Z,19.90
2019-05-13T15:11:02.618Z,20.00
2019-05-13T15:13:32.375Z,20.10
2019-05-13T15:16:01.872Z,19.90
2019-05-13T15:18:32.751Z,19.40
2019-05-13T15:21:02.403Z,19.60
2019-05-13T15:23:31.966Z,19.50
2019-05-13T15:26:02.194Z,19.70
2019-05-13T15:28:32.116Z,19.50
2019-05-13T15:31:01.532Z,19.60
2019-05-13T15:33:32.653Z,19.40
2019-05-13T15:36:02.398Z,19.50
2019-05-13T15:38:32.266Z,19.50
2019-05-13T15:41:02.168Z,19.30
2019-05-13T15:43:32.121Z,19.30
2019-05-13T15:46:16.788Z,19.30
2019-05-13T15:48:32.821Z,19.00
2019-05-13T15:51:02.418Z,19.00
2019-05-13T15:53:32.308Z,19.20
2019-05-13T15:56:02.680Z,19.20
2019-05-13T15:58:38.932Z,19.40
2019-05-13T16:01:03.585Z,19.30
2019-05-13T16:03:32.940Z,19.30
2019-05-13T16:06:02.327Z,19.30
2019-05-13T16:08:32.062Z,19.30
2019-05-13T16:11:02.385Z,19.30
2019-05-13T16:13:32.080Z,19.20
2019-05-13T16:16:01.871Z,19.20
2019-05-13T16:18:31.999Z,19.20
2019-05-13T16:21:01.991Z,19.20
2019-05-13T16:23:32.634Z,19.20
2019-05-13T16:26:02.217Z,19.30
2019-05-13T16:28:32.477Z,19.30
2019-05-13T16:31:02.637Z,19.30
2019-05-13T16:33:32.341Z,19.20
2019-05-13T16:36:02.543Z,19.30
2019-05-13T16:38:32.987Z,19.00
2019-05-13T16:41:02.503Z,18.90
2019-05-13T16:43:32.319Z,18.90
2019-05-13T16:46:01.747Z,18.90
2019-05-13T16:48:32.276Z,18.90
2019-05-13T16:51:01.972Z,19.00
2019-05-13T16:53:31.671Z,18.60
2019-05-13T16:56:01.842Z,18.60
2019-05-13T16:58:32.451Z,18.70
2019-05-13T17:01:02.739Z,18.80
2019-05-13T17:03:32.307Z,18.80
2019-05-13T17:06:02.234Z,18.80
2019-05-13T17:08:32.069Z,18.70
2019-05-13T17:11:02.286Z,18.90
2019-05-13T17:13:31.782Z,18.60
2019-05-13T17:16:01.609Z,18.50
2019-05-13T17:18:32.410Z,18.20
2019-05-13T17:21:02.262Z,18.30
2019-05-13T17:23:31.614Z,18.40
2019-05-13T17:26:02.623Z,18.30
2019-05-13T17:28:34.217Z,18.20
2019-05-13T17:31:03.372Z,18.20
2019-05-13T17:33:32.725Z,18.00
2019-05-13T17:36:02.231Z,18.10
2019-05-13T17:38:32.577Z,18.20
2019-05-13T17:41:02.665Z,18.00
2019-05-13T17:43:32.404Z,18.00
2019-05-13T17:46:02.297Z,18.00
2019-05-13T17:48:32.960Z,17.80
2019-05-13T17:51:02.687Z,17.90
2019-05-13T17:53:32.678Z,17.60
2019-05-13T17:56:02.693Z,17.70
2019-05-13T17:58:32.208Z,17.70
2019-05-13T18:01:01.943Z,17.80
2019-05-13T18:03:32.249Z,17.80
2019-05-13T18:06:02.519Z,17.80
2019-05-13T18:08:32.355Z,17.80
2019-05-13T18:11:02.634Z,17.80
2019-05-13T18:13:32.359Z,17.70
2019-05-13T18:16:02.617Z,17.50
2019-05-13T18:18:42.552Z,17.50
2019-05-13T18:21:03.390Z,17.50
2019-05-13T18:23:32.817Z,17.50
2019-05-13T18:26:02.177Z,17.50
2019-05-13T18:28:31.763Z,17.40
2019-05-13T18:31:01.908Z,17.40
2019-05-13T18:33:32.104Z,17.50
2019-05-13T18:36:02.217Z,17.40
2019-05-13T18:38:31.572Z,17.40
2019-05-13T18:41:01.729Z,17.40
2019-05-13T18:43:32.138Z,17.40
2019-05-13T18:46:02.240Z,17.20
2019-05-13T18:48:32.437Z,17.00
2019-05-13T18:51:01.978Z,17.10
2019-05-13T18:53:32.179Z,17.00
2019-05-13T18:56:02.270Z,17.00
2019-05-13T18:58:31.893Z,17.00
2019-05-13T19:01:01.657Z,16.80
2019-05-13T19:03:32.296Z,16.80
2019-05-13T19:06:01.931Z,16.80
2019-05-13T19:08:32.153Z,16.80
2019-05-13T19:11:01.714Z,16.60
2019-05-13T19:13:32.330Z,16.50
2019-05-13T19:16:02.591Z,16.50
2019-05-13T19:18:32.292Z,16.30
2019-05-13T19:21:02.085Z,16.50
2019-05-13T19:23:31.767Z,16.40
2019-05-13T19:26:01.883Z,16.40
2019-05-13T19:28:31.863Z,16.40
2019-05-13T19:31:02.254Z,16.30
2019-05-13T19:33:31.979Z,16.30
2019-05-13T19:36:01.650Z,16.20
2019-05-13T19:38:32.026Z,16.10
2019-05-13T19:41:01.982Z,16.10
2019-05-13T19:43:31.736Z,16.10
2019-05-13T19:46:01.671Z,16.00
2019-05-13T19:48:32.589Z,15.90
2019-05-13T19:51:02.437Z,15.70
2019-05-13T19:53:32.129Z,15.70
2019-05-13T19:56:01.713Z,15.60
2019-05-13T19:58:32.339Z,15.60
2019-05-13T20:01:02.128Z,15.50
2019-05-13T20:03:31.863Z,15.40
2019-05-13T20:06:02.187Z,15.30
2019-05-13T20:08:32.249Z,15.20
2019-05-13T20:11:02.246Z,15.10
2019-05-13T20:13:31.726Z,15.00
2019-05-13T20:16:01.569Z,15.00
2019-05-13T20:18:32.062Z,15.10
2019-05-13T20:21:01.842Z,15.00
2019-05-13T20:23:32.047Z,14.90
2019-05-13T20:26:01.637Z,15.00
2019-05-13T20:28:31.677Z,15.10
2019-05-13T20:31:01.866Z,15.00
2019-05-13T20:33:32.206Z,15.00
2019-05-13T20:36:02.184Z,15.00
2019-05-13T20:38:31.812Z,14.90
2019-05-13T20:41:01.578Z,14.80
2019-05-13T20:43:32.772Z,14.70
2019-05-13T20:46:02.320Z,14.70
2019-05-13T20:48:32.200Z,14.60
2019-05-13T20:51:02.629Z,14.50
2019-05-13T20:53:32.331Z,14.50
2019-05-13T20:56:02.007Z,14.40
2019-05-13T20:58:31.954Z,14.20
2019-05-13T21:01:02.355Z,14.10
2019-05-13T21:03:32.013Z,14.00
2019-05-13T21:06:01.355Z,14.00
2019-05-13T21:08:32.154Z,14.00
2019-05-13T21:11:02.391Z,14.00
2019-05-13T21:13:32.148Z,14.00
2019-05-13T21:16:02.324Z,13.90
2019-05-13T21:18:32.037Z,13.90
2019-05-13T21:21:01.410Z,13.90
2019-05-13T21:23:31.373Z,13.70
2019-05-13T21:26:01.566Z,13.90
2019-05-13T21:28:31.214Z,13.90
2019-05-13T21:31:02.197Z,13.80
2019-05-13T21:33:31.798Z,13.80
2019-05-13T21:36:01.695Z,13.80
2019-05-13T21:38:32.426Z,13.70
2019-05-13T21:41:02.174Z,13.70
2019-05-13T21:43:32.428Z,13.60
2019-05-13T21:46:02.306Z,13.60
2019-05-13T21:48:32.592Z,13.60
2019-05-13T21:51:02.236Z,13.60
2019-05-13T21:53:32.647Z,13.50
2019-05-13T21:56:02.503Z,13.50
2019-05-13T21:58:32.167Z,13.40
2019-05-13T22:01:02.427Z,13.50
2019-05-13T22:03:33.553Z,13.40
2019-05-13T22:06:02.817Z,13.50
2019-05-13T22:08:32.287Z,13.50
2019-05-13T22:11:01.911Z,13.30
2019-05-13T22:13:31.755Z,13.40
2019-05-13T22:16:01.827Z,13.30
2019-05-13T22:18:31.721Z,13.40
2019-05-13T22:21:01.560Z,13.40
2019-05-13T22:23:32.175Z,13.30
2019-05-13T22:26:02.033Z,13.20
2019-05-13T22:28:31.579Z,13.20
2019-05-13T22:31:01.480Z,13.20
2019-05-13T22:33:32.411Z,13.10
2019-05-13T22:36:02.108Z,13.20
2019-05-13T22:38:32.349Z,13.10
2019-05-13T22:41:02.140Z,13.10
2019-05-13T22:43:32.216Z,13.10
2019-05-13T22:46:01.697Z,13.10
2019-05-13T22:48:31.700Z,13.10
2019-05-13T22:51:01.601Z,13.10
2019-05-13T22:53:31.875Z,13.00
2019-05-13T22:56:01.590Z,13.20
2019-05-13T22:58:32.061Z,13.10
2019-05-13T23:01:02.573Z,13.20
2019-05-13T23:03:32.525Z,13.10
2019-05-13T23:06:01.974Z,13.20
2019-05-13T23:08:32.473Z,13.00
2019-05-13T23:11:02.364Z,13.00
2019-05-13T23:13:31.722Z,13.00
2019-05-13T23:16:02.399Z,12.90
2019-05-13T23:18:32.180Z,12.90
2019-05-13T23:21:02.247Z,12.90
2019-05-13T23:23:32.042Z,12.80
2019-05-13T23:26:01.375Z,12.90
2019-05-13T23:28:32.309Z,12.80
2019-05-13T23:31:01.907Z,12.70
2019-05-13T23:33:31.533Z,12.80
2019-05-13T23:36:01.642Z,12.80
2019-05-13T23:38:31.967Z,12.70
2019-05-13T23:41:02.038Z,12.70
2019-05-13T23:43:31.839Z,12.60
2019-05-13T23:46:01.415Z,12.60
2019-05-13T23:48:32.129Z,12.50
2019-05-13T23:51:01.811Z,12.40
2019-05-13T23:53:31.601Z,12.40
2019-05-13T23:56:01.903Z,12.50
2019-05-13T23:58:32.150Z,12.40
